This is the latest recevied weather packets stored in our database for station/object K0UND-1. If no packets are shown the sender has not sent any weather packets the latest 10 day(s).
| Time | Temp. | Humidity | Pressure | Rain* | Wind** | Luminosity | Snow |
|---|---|---|---|---|---|---|---|
| 1778288410 | 17.22° C | 27% | 1001 hPa | 0 mm | - | - | - |
| 1778284811 | 17.78° C | 26% | 1001.7 hPa | 0 mm | - | - | - |
| 1778281211 | 18.89° C | 26% | 1002.4 hPa | 0 mm | - | - | - |
| 1778277609 | 17.78° C | 26% | 1003 hPa | 0 mm | - | - | - |
| 1778274008 | 17.78° C | 24% | 1003.7 hPa | 0 mm | - | - | - |
| 1778270407 | 17.22° C | 24% | 1004.4 hPa | 0 mm | - | - | - |
| 1778266812 | 16.11° C | 23% | 1004.7 hPa | 0 mm | - | - | - |
| 1778256011 | 15° C | 27% | 1004.4 hPa | 0 mm | - | - | - |
| 1778252407 | 12.78° C | 28% | 1004.4 hPa | 0 mm | - | - | - |
| 1778248809 | 10° C | 37% | 1004.7 hPa | 0 mm | - | - | - |
| 1778245210 | 6.11° C | 49% | 1004.7 hPa | 0 mm | - | - | - |
| 1778241605 | 5° C | 45% | 1005.1 hPa | 0 mm | - | - | - |
| 1778238009 | 2.78° C | 52% | 1005.4 hPa | 0 mm | - | - | - |
| 1778234410 | 2.78° C | 60% | 1005.8 hPa | 0 mm | - | - | - |
| 1778230817 | 2.78° C | 60% | 1006.1 hPa | 0 mm | - | - | - |
| 1778227208 | 2.78° C | 52% | 1006.8 hPa | 0 mm | - | - | - |
| 1778223609 | -1.11° C | 64% | 1007.5 hPa | 0 mm | - | - | - |
| 1778220010 | 0° C | 59% | 1007.5 hPa | 0 mm | - | - | - |
| 1778216406 | 2.78° C | 48% | 1007.8 hPa | 0 mm | - | - | - |
| 1778212809 | 5° C | 42% | 1008.1 hPa | 0 mm | - | - | - |
| 1778209210 | 8.89° C | 32% | 1008.2 hPa | 0 mm | - | - | - |
| 1778205605 | 11.11° C | 28% | 1007.1 hPa | 0 mm | - | - | - |
| 1778202011 | 13.89° C | 23% | 1007.1 hPa | 0 mm | - | - | - |
| 1778198406 | 13.89° C | 23% | 1007.5 hPa | 0 mm | - | - | - |
| 1778194807 | 15° C | 21% | 1007.5 hPa | 0 mm | - | - | - |
* Rain latest hour (hover to see other rain measurements)
** Current wind speed in m/s (hover to see current wind gust speed)